USPPUSSS

Guest
Details From USPP - Bolshoye Savino
To USSS - Koltsovo
Flight Number -
Tags Generated
Created
Modified
Stats Distance 170 nm / 315 km
Max Altitude 0 ft / 0 m
Waypoints 2
Social Downloads 2
Likes 0
Share VATSIM

Download

Looking for another format? Having issues loading an existing format? Contact us
Advertisement - Login to hide

Notes

Generated

Route

USPP USSS

ID Type Via Altitude Latitude Longitude Leg Dist Tot Dist Heading (true) Name
O USPP APT - 0 ft / 0 m 57.90452˚ 56.00177˚ - 0 nm - -
O USSS APT - 0 ft / 0 m 56.74481˚ 60.78140˚ 169 nm 169 nm 112° / 116° -

Altitude Profile

Advertisement - Login to hide

Weather


0- 5 10 15 20 25 30 35+ Temperature / ° C

Clouds and Precipitation
Forecast for 2017-12-17 12:00 UTC. Updated an hour ago

Ground ~20,000 ft ~40,000 ft Winds

USPP

Details ICAO USPP (PEE)
Name BOLSHOYE SAVINO
Region Russia
Timezone Asia/Yekaterinburg (UTC+5.0)
Stats Elevation 404 ft / 123 m (AMSL)
Location 57.914517° 56.021214°
Runways 1
Magnetic Variation 15.588° E

METAR

USPP 170830Z 16002MPS CAVOK M08/M13 Q1033 R21/090060 NOSIG RMK QFE764

Decode

TAF

TAF TAF USPP 170758Z 1709/1809 18003G08MPS CAVOK BECMG 1716/1718 3100 BR BKN011

Decode

Departure Runways

ID Width Length Bearing (true) Bearing (mag) Surface Threshold Offset Overrun Length
03 161 ft / 49 m 10,493 ft / 3,198 m 45.91° 30.32° Concrete 0 ft / 0 m 165 ft / 50 m
21 161 ft / 49 m 10,493 ft / 3,198 m 225.95° 210.36° Concrete 0 ft / 0 m 155 ft / 47 m

USSS

Details ICAO USSS (SVX)
Name KOLTSOVO
Region Russia
Timezone Asia/Yekaterinburg (UTC+5.0)
Stats Elevation 764 ft / 233 m (AMSL)
Location 56.743108° 60.802727°
Runways 2
Magnetic Variation 14.864° E

METAR

USSS 170830Z 08001MPS 9000 NSC M12/M15 Q1038 R26R/290039 NOSIG RMK QFE757/1009

Decode

TAF

TAF USSS 170751Z 1709/1809 15003MPS 5000 BR SCT015 TEMPO 1709/1721 0300 FZFG VV002 BECMG 1721/1723 3100 BR

Decode

Destination Runways

ID Width Length Bearing (true) Bearing (mag) Surface Threshold Offset Overrun Length
08L 148 ft / 45 m 8,172 ft / 2,491 m 90.13° 75.27° Asphalt 0 ft / 0 m 230 ft / 70 m
08R 174 ft / 53 m 9,861 ft / 3,006 m 94.09° 79.23° Concrete 246 ft / 75 m 165 ft / 50 m
26L 174 ft / 53 m 9,861 ft / 3,006 m 274.14° 259.28° Concrete 1,066 ft / 325 m 165 ft / 50 m
26R 148 ft / 45 m 8,172 ft / 2,491 m 270.17° 255.31° Asphalt 0 ft / 0 m 220 ft / 67 m

Approach Navaids

Runway Type Ident Frequency Range Bearing (true) Bearing (mag) Slope Elevation
08R Localiser IEL 109.90 MHz 18 nm / 33 km 94.03° 79.17° - 764 ft / 233 m (AMSL)
08R Glidescope IEL 109.90 MHz 10 nm / 19 km 94.11° 79.25° 2.70° 764 ft / 233 m (AMSL)
26L Localiser IED 109.50 MHz 18 nm / 33 km 272.26° 257.40° - 764 ft / 233 m (AMSL)
26L Glidescope IED 109.50 MHz 10 nm / 19 km 274.12° 259.25° 2.80° 764 ft / 233 m (AMSL)
26R Localiser IKU 110.50 MHz 18 nm / 33 km 270.48° 255.61° - 764 ft / 233 m (AMSL)
26R Glidescope IKU 110.50 MHz 10 nm / 19 km 270.15° 255.28° 3.00° 764 ft / 233 m (AMSL)

Popular Alternatives